createdAt,value
2023-04-26T00:17:16.644Z,10.14
2023-04-26T00:41:16.570Z,9.74
2023-04-26T00:45:08.804Z,9.68
2023-04-26T01:04:30.425Z,9.45
2023-04-26T01:08:51.594Z,9.43
2023-04-26T01:13:11.335Z,9.43
2023-04-26T01:33:36.426Z,9.40
2023-04-26T01:37:28.938Z,9.42
2023-04-26T01:41:02.428Z,9.44
2023-04-26T01:50:25.710Z,9.49
2023-04-26T02:06:37.814Z,9.53
2023-04-26T02:20:45.031Z,9.47
2023-04-26T02:24:27.321Z,9.49
2023-04-26T02:27:41.292Z,9.53
2023-04-26T02:31:09.374Z,9.57
2023-04-26T02:41:00.252Z,9.62
2023-04-26T02:49:29.954Z,9.61
2023-04-26T02:57:44.439Z,9.66
2023-04-26T03:27:25.999Z,9.92
2023-04-26T03:51:45.422Z,10.08
2023-04-26T04:39:52.967Z,10.67
2023-04-26T05:43:38.567Z,10.99
2023-04-26T05:47:18.328Z,11.02
2023-04-26T05:54:38.591Z,11.13
2023-04-26T05:57:46.979Z,11.19
2023-04-26T06:05:19.652Z,11.39
2023-04-26T06:08:22.729Z,11.55
2023-04-26T06:11:27.454Z,11.67
2023-04-26T06:14:37.941Z,11.78
2023-04-26T06:17:48.741Z,11.85
2023-04-26T06:20:55.841Z,11.98
2023-04-26T06:23:58.293Z,12.15
2023-04-26T06:27:07.504Z,12.33
2023-04-26T06:30:12.519Z,12.50
2023-04-26T06:33:22.199Z,12.64
2023-04-26T06:36:27.871Z,12.76
2023-04-26T06:39:31.785Z,12.83
2023-04-26T06:42:35.918Z,12.84
2023-04-26T06:46:02.762Z,12.86
2023-04-26T06:53:34.719Z,12.88
2023-04-26T07:01:55.700Z,13.01
2023-04-26T07:05:22.101Z,13.18
2023-04-26T07:12:30.519Z,13.60
2023-04-26T07:19:28.800Z,14.09
2023-04-26T07:23:15.329Z,14.30
2023-04-26T07:26:58.872Z,14.55
2023-04-26T07:35:18.515Z,14.97
2023-04-26T07:38:25.264Z,15.12
2023-04-26T07:41:28.187Z,15.32
2023-04-26T07:44:31.796Z,15.47
2023-04-26T07:47:38.220Z,15.65
2023-04-26T07:50:41.846Z,15.86
2023-04-26T07:53:46.735Z,16.03
2023-04-26T07:56:52.969Z,16.14
2023-04-26T07:59:58.764Z,16.29
2023-04-26T08:03:04.103Z,16.46
2023-04-26T08:06:12.111Z,16.56
2023-04-26T08:09:17.540Z,16.59
2023-04-26T08:12:25.163Z,16.58
2023-04-26T08:15:27.075Z,16.45
2023-04-26T08:18:34.306Z,16.44
2023-04-26T08:21:51.698Z,16.50
2023-04-26T08:25:04.100Z,16.41
2023-04-26T08:28:30.058Z,16.12
2023-04-26T08:32:26.691Z,15.89
2023-04-26T08:36:25.672Z,15.77
2023-04-26T08:40:40.869Z,15.91
2023-04-26T08:48:51.295Z,16.33
2023-04-26T08:52:32.365Z,16.36
2023-04-26T08:56:35.128Z,16.34
2023-04-26T09:00:31.810Z,16.37
2023-04-26T09:03:57.539Z,16.51
2023-04-26T09:07:30.011Z,16.59
2023-04-26T09:21:12.789Z,16.67
2023-04-26T09:30:15.168Z,16.15
2023-04-26T09:34:03.087Z,15.78
2023-04-26T09:38:22.048Z,15.44
2023-04-26T09:46:40.053Z,15.01
2023-04-26T09:50:16.109Z,14.91
2023-04-26T10:06:51.052Z,15.19
2023-04-26T10:15:37.797Z,15.57
2023-04-26T10:19:40.512Z,15.52
2023-04-26T10:23:14.893Z,15.52
2023-04-26T10:32:09.399Z,15.82
2023-04-26T10:36:00.284Z,16.10
2023-04-26T10:39:57.403Z,16.30
2023-04-26T10:43:43.199Z,16.54
2023-04-26T10:47:26.681Z,16.70
2023-04-26T11:07:16.934Z,15.80
2023-04-26T11:15:37.444Z,16.08
2023-04-26T11:18:56.494Z,16.02
2023-04-26T11:22:10.002Z,15.85
2023-04-26T11:25:46.498Z,15.63
2023-04-26T11:29:30.566Z,15.50
2023-04-26T11:44:44.636Z,14.94
2023-04-26T11:52:47.294Z,14.65
2023-04-26T11:55:54.424Z,14.67
2023-04-26T11:58:59.949Z,14.79
2023-04-26T12:02:31.936Z,14.91
2023-04-26T12:05:40.468Z,14.95
2023-04-26T12:08:53.727Z,14.89
2023-04-26T12:12:14.076Z,14.86
2023-04-26T12:15:25.475Z,14.81
2023-04-26T12:18:32.208Z,14.80
2023-04-26T12:21:54.205Z,14.78
2023-04-26T12:25:16.693Z,14.73
2023-04-26T12:28:32.220Z,14.71
2023-04-26T12:31:50.451Z,14.75
2023-04-26T12:35:06.133Z,14.78
2023-04-26T12:38:18.133Z,14.84
2023-04-26T12:42:09.786Z,14.99
2023-04-26T12:45:31.337Z,15.27
2023-04-26T12:48:48.201Z,15.47
2023-04-26T12:51:56.600Z,15.65
2023-04-26T12:55:09.920Z,15.82
2023-04-26T12:58:22.291Z,15.92
2023-04-26T13:01:33.263Z,16.06
2023-04-26T13:04:43.545Z,16.23
2023-04-26T13:07:47.827Z,16.40
2023-04-26T13:10:57.834Z,16.52
2023-04-26T13:14:12.061Z,16.58
2023-04-26T13:17:20.976Z,16.56
2023-04-26T13:20:39.090Z,16.51
2023-04-26T13:23:47.991Z,16.53
2023-04-26T13:27:04.370Z,16.50
2023-04-26T13:30:19.692Z,16.44
2023-04-26T13:33:34.350Z,16.32
2023-04-26T13:36:48.910Z,16.21
2023-04-26T13:40:29.433Z,16.13
2023-04-26T13:43:40.623Z,16.04
2023-04-26T13:46:51.118Z,16.05
2023-04-26T13:49:56.731Z,15.99
2023-04-26T13:53:08.223Z,15.85
2023-04-26T13:56:36.352Z,15.70
2023-04-26T13:59:46.370Z,15.50
2023-04-26T14:05:29.161Z,15.28
2023-04-26T14:08:35.935Z,15.09
2023-04-26T14:11:47.535Z,14.72
2023-04-26T14:15:06.605Z,14.53
2023-04-26T14:18:23.083Z,14.39
2023-04-26T14:21:42.391Z,14.31
2023-04-26T14:25:19.357Z,14.20
2023-04-26T14:28:27.423Z,14.10
2023-04-26T14:31:46.314Z,13.90
2023-04-26T14:34:57.521Z,13.73
2023-04-26T14:38:19.524Z,13.61
2023-04-26T14:41:35.232Z,13.45
2023-04-26T14:45:02.434Z,13.32
2023-04-26T14:48:43.248Z,13.27
2023-04-26T14:52:02.055Z,13.27
2023-04-26T14:55:57.986Z,13.24
2023-04-26T14:59:32.837Z,13.21
2023-04-26T15:08:03.148Z,13.12
2023-04-26T15:11:46.920Z,13.12
2023-04-26T15:15:29.792Z,13.18
2023-04-26T15:19:05.571Z,13.29
2023-04-26T15:27:53.636Z,13.40
2023-04-26T15:31:10.682Z,13.37
2023-04-26T15:38:49.697Z,13.26
2023-04-26T15:42:29.116Z,13.19
2023-04-26T15:51:01.577Z,13.06
2023-04-26T15:54:39.875Z,13.01
2023-04-26T16:03:17.484Z,12.94
2023-04-26T16:06:27.279Z,12.93
2023-04-26T16:09:52.770Z,12.93
2023-04-26T16:13:13.657Z,12.94
2023-04-26T16:16:18.894Z,12.91
2023-04-26T16:19:59.473Z,12.86
2023-04-26T16:23:37.718Z,12.84
2023-04-26T16:27:11.061Z,12.81
2023-04-26T16:30:39.219Z,12.78
2023-04-26T16:38:00.184Z,12.70
2023-04-26T16:41:22.976Z,12.65
2023-04-26T16:44:40.825Z,12.59
2023-04-26T16:47:55.850Z,12.55
2023-04-26T16:51:07.128Z,12.55
2023-04-26T16:54:41.119Z,12.58
2023-04-26T16:58:22.987Z,12.60
2023-04-26T17:01:52.427Z,12.60
2023-04-26T17:05:06.135Z,12.59
2023-04-26T17:08:27.392Z,12.56
2023-04-26T17:15:43.547Z,12.57
2023-04-26T17:19:13.857Z,12.55
2023-04-26T17:22:22.672Z,12.52
2023-04-26T17:25:41.949Z,12.47
2023-04-26T17:32:30.323Z,12.40
2023-04-26T17:36:17.441Z,12.39
2023-04-26T17:39:27.034Z,12.38
2023-04-26T17:42:44.418Z,12.37
2023-04-26T17:45:58.020Z,12.35
2023-04-26T17:49:06.849Z,12.31
2023-04-26T17:52:23.238Z,12.24
2023-04-26T17:55:43.622Z,12.16
2023-04-26T17:58:48.167Z,12.06
2023-04-26T18:05:34.146Z,11.85
2023-04-26T18:08:55.807Z,11.77
2023-04-26T18:12:26.320Z,11.70
2023-04-26T18:19:24.106Z,11.60
2023-04-26T18:22:55.226Z,11.58
2023-04-26T18:26:27.640Z,11.54
2023-04-26T18:29:53.136Z,11.50
2023-04-26T18:32:57.991Z,11.46
2023-04-26T18:36:05.380Z,11.41
2023-04-26T18:39:07.755Z,11.38
2023-04-26T18:42:13.309Z,11.34
2023-04-26T18:45:21.366Z,11.31
2023-04-26T18:48:24.659Z,11.29
2023-04-26T18:51:31.238Z,11.26
2023-04-26T18:54:38.900Z,11.24
2023-04-26T18:57:52.666Z,11.22
2023-04-26T19:01:05.884Z,11.22
2023-04-26T19:04:36.939Z,11.22
2023-04-26T19:08:28.533Z,11.24
2023-04-26T19:11:32.379Z,11.25
2023-04-26T19:14:36.725Z,11.28
2023-04-26T19:21:16.584Z,11.37
2023-04-26T19:24:24.685Z,11.40
2023-04-26T19:27:35.611Z,11.44
2023-04-26T19:30:42.241Z,11.47
2023-04-26T19:33:55.557Z,11.49
2023-04-26T19:53:19.727Z,11.67
2023-04-26T19:57:24.060Z,11.72
2023-04-26T20:00:32.723Z,11.74
2023-04-26T20:03:41.203Z,11.77
2023-04-26T20:32:17.489Z,11.71
2023-04-26T20:44:45.046Z,11.01
2023-04-26T20:48:34.561Z,10.64
2023-04-26T20:52:15.305Z,10.41
2023-04-26T20:55:48.019Z,10.19
2023-04-26T20:59:25.138Z,9.89
2023-04-26T21:07:56.568Z,9.43
2023-04-26T21:11:47.788Z,9.26
2023-04-26T21:15:17.392Z,9.17
2023-04-26T21:18:49.400Z,9.10
2023-04-26T21:22:03.501Z,9.01
2023-04-26T21:25:40.095Z,8.89
2023-04-26T21:33:40.117Z,8.68
2023-04-26T21:40:42.387Z,8.47
2023-04-26T21:44:00.255Z,8.39
2023-04-26T21:47:30.480Z,8.33
2023-04-26T21:54:51.732Z,8.24
2023-04-26T21:58:27.288Z,8.19
2023-04-26T22:09:31.520Z,7.79
2023-04-26T22:13:26.609Z,7.69
2023-04-26T22:16:47.489Z,7.58
2023-04-26T22:20:01.847Z,7.48
2023-04-26T22:23:41.321Z,7.39
2023-04-26T22:26:52.992Z,7.30
2023-04-26T22:30:25.372Z,7.18
2023-04-26T22:37:23.192Z,7.04
2023-04-26T22:40:30.837Z,6.97
2023-04-26T22:43:44.300Z,6.91
2023-04-26T22:47:03.464Z,6.86
2023-04-26T22:57:48.136Z,6.76
2023-04-26T23:01:25.818Z,6.68
2023-04-26T23:05:09.944Z,6.61
2023-04-26T23:08:26.906Z,6.56
2023-04-26T23:11:45.188Z,6.53
2023-04-26T23:14:56.405Z,6.54
2023-04-26T23:18:09.643Z,6.52
2023-04-26T23:21:23.961Z,6.47
2023-04-26T23:24:57.416Z,6.43
2023-04-26T23:28:12.238Z,6.41
2023-04-26T23:31:27.997Z,6.39
2023-04-26T23:34:41.316Z,6.34
2023-04-26T23:38:24.072Z,6.31
2023-04-26T23:45:13.274Z,6.27
2023-04-26T23:48:31.979Z,6.25
2023-04-26T23:52:03.619Z,6.21
2023-04-26T23:55:15.490Z,6.17
2023-04-26T23:58:28.623Z,6.15
